createdAt,value
2022-09-28T00:01:00.428Z,8.80
2022-09-28T00:03:28.960Z,8.80
2022-09-28T00:06:03.026Z,8.80
2022-09-28T00:08:30.915Z,8.70
2022-09-28T00:11:00.103Z,8.60
2022-09-28T00:13:28.198Z,8.60
2022-09-28T00:16:03.960Z,8.70
2022-09-28T00:18:32.215Z,8.70
2022-09-28T00:21:05.731Z,8.70
2022-09-28T00:23:34.386Z,8.70
2022-09-28T00:26:06.973Z,8.70
2022-09-28T00:28:34.706Z,8.70
2022-09-28T00:31:02.513Z,8.70
2022-09-28T00:33:30.403Z,8.70
2022-09-28T00:35:58.859Z,8.70
2022-09-28T00:38:30.494Z,8.70
2022-09-28T00:40:59.573Z,8.70
2022-09-28T00:43:28.979Z,8.60
2022-09-28T00:46:01.101Z,8.70
2022-09-28T00:48:32.779Z,8.60
2022-09-28T00:51:05.481Z,8.60
2022-09-28T00:53:35.783Z,8.50
2022-09-28T00:56:07.428Z,8.50
2022-09-28T00:58:40.611Z,8.50
2022-09-28T01:01:08.934Z,8.50
2022-09-28T01:03:38.247Z,8.50
2022-09-28T01:06:08.663Z,8.60
2022-09-28T01:08:37.888Z,8.60
2022-09-28T01:11:06.243Z,8.50
2022-09-28T01:13:35.819Z,8.40
2022-09-28T01:16:12.875Z,8.40
2022-09-28T01:18:48.653Z,8.40
2022-09-28T01:21:19.870Z,8.40
2022-09-28T01:24:26.400Z,8.50
2022-09-28T01:27:14.356Z,8.50
2022-09-28T01:29:50.286Z,8.50
2022-09-28T01:32:26.939Z,8.50
2022-09-28T01:34:59.624Z,8.60
2022-09-28T01:37:32.692Z,8.60
2022-09-28T01:40:03.626Z,8.60
2022-09-28T01:42:35.764Z,8.60
2022-09-28T01:45:10.410Z,8.60
2022-09-28T01:47:40.889Z,8.50
2022-09-28T01:50:12.842Z,8.50
2022-09-28T01:52:48.715Z,8.50
2022-09-28T01:55:25.221Z,8.40
2022-09-28T01:57:58.267Z,8.40
2022-09-28T02:00:27.555Z,8.30
2022-09-28T02:03:00.335Z,8.30
2022-09-28T02:05:39.792Z,8.20
2022-09-28T02:08:10.372Z,8.20
2022-09-28T02:10:42.098Z,8.20
2022-09-28T02:13:16.148Z,8.20
2022-09-28T02:15:50.463Z,8.20
2022-09-28T02:18:18.809Z,8.20
2022-09-28T02:20:53.057Z,8.20
2022-09-28T02:23:25.502Z,8.20
2022-09-28T02:25:59.883Z,8.20
2022-09-28T02:28:29.391Z,8.20
2022-09-28T02:30:57.295Z,8.20
2022-09-28T02:33:29.252Z,8.10
2022-09-28T02:35:58.484Z,8.10
2022-09-28T02:38:27.496Z,8.10
2022-09-28T02:41:03.772Z,8.10
2022-09-28T02:43:41.082Z,8.10
2022-09-28T02:46:16.961Z,8.00
2022-09-28T02:49:17.313Z,8.10
2022-09-28T02:52:00.057Z,8.10
2022-09-28T02:54:40.015Z,8.10
2022-09-28T02:57:20.581Z,8.10
2022-09-28T02:59:55.379Z,8.10
2022-09-28T03:02:29.720Z,8.10
2022-09-28T03:05:17.778Z,8.10
2022-09-28T03:07:55.328Z,8.10
2022-09-28T03:10:28.760Z,8.10
2022-09-28T03:12:57.760Z,8.10
2022-09-28T03:15:28.604Z,8.10
2022-09-28T03:17:57.589Z,8.10
2022-09-28T03:20:26.007Z,8.10
2022-09-28T03:23:19.599Z,8.10
2022-09-28T03:25:41.719Z,8.10
2022-09-28T03:28:09.560Z,8.10
2022-09-28T03:30:43.030Z,8.10
2022-09-28T03:33:10.916Z,8.10
2022-09-28T03:35:39.414Z,8.00
2022-09-28T03:38:07.194Z,8.00
2022-09-28T03:40:38.796Z,8.00
2022-09-28T03:43:06.719Z,8.10
2022-09-28T03:45:34.833Z,8.10
2022-09-28T03:48:04.210Z,8.20
2022-09-28T03:50:34.749Z,8.20
2022-09-28T03:53:05.941Z,8.20
2022-09-28T03:55:33.868Z,8.10
2022-09-28T03:58:01.664Z,8.10
2022-09-28T04:00:30.549Z,8.10
2022-09-28T04:02:58.466Z,8.00
2022-09-28T04:05:28.068Z,8.00
2022-09-28T04:07:57.699Z,8.00
2022-09-28T04:10:25.869Z,8.00
2022-09-28T04:12:55.928Z,8.10
2022-09-28T04:15:24.379Z,8.10
2022-09-28T04:17:52.351Z,8.00
2022-09-28T04:20:48.150Z,8.00
2022-09-28T04:23:16.360Z,8.00
2022-09-28T04:25:48.582Z,8.00
2022-09-28T04:28:34.549Z,8.00
2022-09-28T04:31:02.367Z,8.00
2022-09-28T04:33:30.349Z,8.00
2022-09-28T04:36:00.596Z,7.90
2022-09-28T04:38:51.378Z,7.90
2022-09-28T04:41:17.324Z,7.90
2022-09-28T04:43:47.604Z,7.90
2022-09-28T04:46:16.249Z,7.90
2022-09-28T04:48:52.410Z,7.90
2022-09-28T04:51:33.943Z,7.90
2022-09-28T04:54:01.704Z,7.90
2022-09-28T04:56:29.458Z,7.90
2022-09-28T04:58:57.264Z,7.90
2022-09-28T05:01:25.780Z,7.90
2022-09-28T05:04:26.243Z,7.80
2022-09-28T05:07:21.563Z,7.80
2022-09-28T05:09:50.425Z,7.80
2022-09-28T05:12:18.286Z,7.80
2022-09-28T05:14:46.043Z,7.80
2022-09-28T05:17:13.907Z,7.80
2022-09-28T05:19:59.064Z,7.80
2022-09-28T05:22:28.453Z,7.80
2022-09-28T05:24:58.220Z,7.80
2022-09-28T05:27:28.338Z,7.90
2022-09-28T05:30:06.068Z,7.90
2022-09-28T05:32:56.925Z,7.90
2022-09-28T05:35:34.101Z,7.90
2022-09-28T05:38:05.999Z,7.90
2022-09-28T05:40:34.417Z,7.90
2022-09-28T05:43:02.844Z,7.90
2022-09-28T05:45:31.209Z,7.80
2022-09-28T05:47:59.070Z,7.80
2022-09-28T05:50:26.926Z,7.90
2022-09-28T05:53:02.396Z,7.80
2022-09-28T05:55:31.866Z,7.80
2022-09-28T05:58:00.460Z,7.80
2022-09-28T06:00:28.579Z,7.80
2022-09-28T06:02:59.916Z,7.80
2022-09-28T06:05:28.733Z,7.80
2022-09-28T06:07:57.911Z,7.80
2022-09-28T06:10:26.399Z,7.90
2022-09-28T06:13:00.962Z,7.80
2022-09-28T06:15:31.233Z,7.90
2022-09-28T06:18:02.409Z,7.90
2022-09-28T06:20:48.872Z,7.90
2022-09-28T06:23:18.025Z,7.90
2022-09-28T06:25:46.059Z,7.90
2022-09-28T06:28:16.498Z,7.90
2022-09-28T06:30:45.173Z,7.90
2022-09-28T06:33:16.919Z,7.90
2022-09-28T06:35:44.963Z,7.90
2022-09-28T06:38:13.240Z,8.00
2022-09-28T06:40:41.073Z,8.00
2022-09-28T06:43:12.492Z,8.00
2022-09-28T06:46:00.328Z,8.00
2022-09-28T06:48:46.890Z,8.10
2022-09-28T06:51:19.141Z,8.00
2022-09-28T06:54:05.781Z,8.00
2022-09-28T06:56:59.951Z,8.00
2022-09-28T06:59:27.706Z,8.00
2022-09-28T07:01:57.084Z,8.00
2022-09-28T07:04:48.505Z,8.10
2022-09-28T07:07:51.591Z,8.10
2022-09-28T07:10:43.726Z,8.10
2022-09-28T07:13:50.959Z,8.20
2022-09-28T07:16:26.785Z,8.20
2022-09-28T07:18:57.238Z,8.30
2022-09-28T07:21:30.105Z,8.30
2022-09-28T07:24:01.403Z,8.30
2022-09-28T07:26:49.221Z,8.30
2022-09-28T07:29:39.535Z,8.40
2022-09-28T07:32:19.613Z,8.40
2022-09-28T07:35:09.617Z,8.40
2022-09-28T07:37:44.593Z,8.50
2022-09-28T07:40:30.496Z,8.50
2022-09-28T07:43:05.156Z,8.60
2022-09-28T07:45:34.060Z,8.60
2022-09-28T07:48:02.594Z,8.70
2022-09-28T07:50:54.176Z,8.80
2022-09-28T07:53:32.309Z,8.80
2022-09-28T07:56:20.138Z,8.80
2022-09-28T07:58:57.263Z,8.70
2022-09-28T08:01:40.159Z,8.70
2022-09-28T08:04:10.717Z,8.80
2022-09-28T08:06:41.274Z,8.80
2022-09-28T08:09:11.459Z,9.00
2022-09-28T08:11:59.643Z,9.10
2022-09-28T08:14:46.678Z,9.10
2022-09-28T08:17:33.178Z,9.10
2022-09-28T08:20:23.378Z,9.00
2022-09-28T08:22:53.161Z,9.00
2022-09-28T08:25:21.060Z,9.00
2022-09-28T08:27:49.536Z,9.10
2022-09-28T08:30:17.892Z,9.10
2022-09-28T08:33:07.589Z,9.10
2022-09-28T08:35:45.475Z,9.20
2022-09-28T08:38:43.825Z,9.20
2022-09-28T08:41:47.779Z,9.40
2022-09-28T08:48:03.830Z,9.40
2022-09-28T08:50:40.794Z,9.50
2022-09-28T08:53:34.243Z,9.60
2022-09-28T08:56:15.936Z,9.60
2022-09-28T08:58:48.157Z,9.60
2022-09-28T09:01:20.218Z,9.60
2022-09-28T09:03:50.655Z,9.70
2022-09-28T09:06:34.530Z,9.70
2022-09-28T09:09:32.819Z,9.80
2022-09-28T09:12:11.609Z,9.80
2022-09-28T09:15:11.800Z,9.90
2022-09-28T09:17:48.814Z,10.00
2022-09-28T09:20:34.947Z,10.00
2022-09-28T09:23:15.109Z,10.10
2022-09-28T09:25:47.553Z,10.10
2022-09-28T09:28:38.283Z,10.10
2022-09-28T09:31:22.715Z,10.00
2022-09-28T09:34:11.840Z,9.90
2022-09-28T09:37:20.407Z,9.90
2022-09-28T09:40:24.863Z,10.00
2022-09-28T09:43:40.144Z,10.10
2022-09-28T09:46:34.928Z,10.20
2022-09-28T09:49:20.485Z,10.40
2022-09-28T09:51:54.479Z,10.60
2022-09-28T09:54:27.734Z,10.70
2022-09-28T09:57:03.620Z,10.70
2022-09-28T09:59:50.186Z,11.00
2022-09-28T10:02:27.130Z,11.10
2022-09-28T10:05:20.843Z,11.30
2022-09-28T10:07:54.684Z,11.50
2022-09-28T10:10:27.096Z,11.60
2022-09-28T10:13:01.296Z,11.80
2022-09-28T10:15:33.835Z,11.70
2022-09-28T10:18:15.249Z,11.60
2022-09-28T10:21:23.874Z,11.30
2022-09-28T10:24:08.371Z,10.90
2022-09-28T10:26:39.984Z,10.90
2022-09-28T10:29:16.926Z,10.90
2022-09-28T10:31:48.976Z,10.90
2022-09-28T10:34:30.891Z,11.00
2022-09-28T10:37:10.615Z,11.10
2022-09-28T10:39:58.162Z,11.20
2022-09-28T10:42:31.527Z,11.30
2022-09-28T10:45:04.553Z,11.30
2022-09-28T10:47:38.575Z,11.50
2022-09-28T10:50:20.642Z,11.60
2022-09-28T10:52:49.067Z,11.80
2022-09-28T10:56:01.463Z,11.50
2022-09-28T10:58:36.022Z,10.90
2022-09-28T11:01:10.205Z,10.60
2022-09-28T11:03:50.666Z,10.30
2022-09-28T11:06:26.260Z,10.10
2022-09-28T11:08:55.752Z,9.90
2022-09-28T11:11:24.916Z,9.80
2022-09-28T11:14:02.633Z,9.80
2022-09-28T11:16:37.183Z,9.80
2022-09-28T11:19:29.429Z,9.70
2022-09-28T11:21:58.201Z,9.60
2022-09-28T11:24:35.018Z,9.60
2022-09-28T11:27:05.288Z,9.70
2022-09-28T11:29:38.371Z,9.80
2022-09-28T11:32:31.022Z,9.90
2022-09-28T11:35:28.551Z,10.00
2022-09-28T11:38:18.344Z,10.10
2022-09-28T11:41:07.400Z,10.40
2022-09-28T11:44:01.878Z,10.40
2022-09-28T11:46:41.296Z,10.40
2022-09-28T11:49:22.396Z,10.40
2022-09-28T11:51:54.113Z,10.50
2022-09-28T11:54:28.919Z,10.50
2022-09-28T11:57:00.764Z,10.50
2022-09-28T11:59:31.614Z,10.60
2022-09-28T12:02:10.821Z,10.80
2022-09-28T12:04:47.864Z,10.70
2022-09-28T12:07:25.708Z,10.60
2022-09-28T12:09:57.176Z,10.60
2022-09-28T12:12:31.485Z,10.60
2022-09-28T12:15:05.000Z,10.50
2022-09-28T12:17:39.768Z,10.40
2022-09-28T12:20:19.863Z,10.30
2022-09-28T12:22:56.733Z,10.30
2022-09-28T12:25:27.611Z,10.20
2022-09-28T12:28:00.221Z,10.20
2022-09-28T12:30:34.035Z,10.30
2022-09-28T12:33:06.741Z,10.30
2022-09-28T12:35:55.776Z,10.30
2022-09-28T12:38:37.978Z,10.50
2022-09-28T12:41:22.525Z,10.70
2022-09-28T12:44:04.570Z,10.90
2022-09-28T12:46:46.002Z,11.00
2022-09-28T12:50:36.265Z,10.90
2022-09-28T12:55:22.964Z,10.40
2022-09-28T12:58:05.938Z,10.20
2022-09-28T13:00:42.005Z,10.20
2022-09-28T13:03:36.915Z,10.10
2022-09-28T13:06:21.002Z,10.10
2022-09-28T13:09:12.990Z,10.20
2022-09-28T13:11:54.404Z,10.50
2022-09-28T13:14:45.204Z,10.90
2022-09-28T13:17:25.686Z,11.40
2022-09-28T13:19:59.344Z,11.70
2022-09-28T13:22:40.015Z,11.90
2022-09-28T13:25:16.552Z,12.10
2022-09-28T13:27:52.296Z,12.00
2022-09-28T13:30:20.304Z,12.10
2022-09-28T13:32:49.933Z,12.20
2022-09-28T13:35:19.521Z,12.20
2022-09-28T13:37:48.681Z,12.20
2022-09-28T13:40:16.490Z,12.00
2022-09-28T13:43:06.699Z,11.70
2022-09-28T13:45:56.686Z,11.70
2022-09-28T13:48:35.671Z,11.60
2022-09-28T13:51:16.660Z,11.60
2022-09-28T13:54:01.056Z,11.60
2022-09-28T13:56:38.595Z,11.70
2022-09-28T13:59:19.214Z,11.80
2022-09-28T14:01:55.642Z,12.00
2022-09-28T14:04:26.303Z,12.20
2022-09-28T14:06:57.026Z,12.30
2022-09-28T14:09:41.830Z,12.30
2022-09-28T14:12:28.487Z,12.30
2022-09-28T14:14:57.683Z,12.40
2022-09-28T14:17:51.133Z,12.30
2022-09-28T14:20:21.302Z,12.30
2022-09-28T14:23:22.530Z,12.30
2022-09-28T14:26:06.916Z,12.00
2022-09-28T14:28:50.494Z,11.80
2022-09-28T14:31:27.076Z,11.70
2022-09-28T14:33:58.766Z,11.50
2022-09-28T14:36:46.690Z,11.30
2022-09-28T14:39:40.623Z,11.10
2022-09-28T14:42:15.720Z,11.10
2022-09-28T14:45:22.181Z,11.00
2022-09-28T14:48:15.359Z,10.80
2022-09-28T14:50:43.550Z,10.90
2022-09-28T14:53:13.478Z,11.00
2022-09-28T14:55:50.170Z,11.10
2022-09-28T14:58:23.688Z,11.20
2022-09-28T15:00:59.020Z,11.30
2022-09-28T15:03:30.114Z,11.30
2022-09-28T15:05:58.680Z,11.40
2022-09-28T15:08:37.461Z,11.20
2022-09-28T15:11:06.055Z,11.20
2022-09-28T15:13:33.926Z,11.20
2022-09-28T15:16:07.335Z,11.10
2022-09-28T15:19:10.501Z,11.10
2022-09-28T15:21:40.653Z,11.20
2022-09-28T15:24:28.614Z,11.10
2022-09-28T15:26:57.057Z,11.10
2022-09-28T15:29:27.170Z,11.10
2022-09-28T15:31:54.951Z,11.10
2022-09-28T15:34:50.224Z,11.10
2022-09-28T15:37:22.297Z,11.30
2022-09-28T15:39:51.371Z,11.40
2022-09-28T15:42:20.317Z,11.40
2022-09-28T15:45:24.843Z,11.30
2022-09-28T15:47:56.098Z,11.30
2022-09-28T15:50:30.062Z,11.40
2022-09-28T15:53:01.131Z,11.40
2022-09-28T15:55:31.927Z,11.30
2022-09-28T15:58:08.800Z,11.30
2022-09-28T16:00:36.830Z,11.30
2022-09-28T16:03:21.786Z,11.40
2022-09-28T16:05:53.092Z,11.30
2022-09-28T16:08:24.652Z,11.40
2022-09-28T16:11:04.899Z,11.40
2022-09-28T16:13:34.142Z,11.30
2022-09-28T16:16:02.373Z,11.10
2022-09-28T16:18:32.405Z,11.00
2022-09-28T16:21:24.209Z,10.90
2022-09-28T16:23:58.151Z,10.80
2022-09-28T16:26:35.726Z,10.80
2022-09-28T16:29:09.427Z,10.80
2022-09-28T16:31:41.264Z,10.80
2022-09-28T16:34:17.520Z,10.80
2022-09-28T16:36:48.318Z,10.70
2022-09-28T16:39:17.398Z,10.90
2022-09-28T16:41:48.264Z,11.00
2022-09-28T16:44:23.341Z,11.00
2022-09-28T16:46:53.866Z,11.00
2022-09-28T16:49:22.195Z,10.90
2022-09-28T16:51:51.284Z,10.90
2022-09-28T16:54:38.789Z,10.90
2022-09-28T16:57:08.233Z,10.80
2022-09-28T16:59:38.309Z,10.70
2022-09-28T17:02:35.317Z,10.70
2022-09-28T17:05:06.349Z,10.70
2022-09-28T17:07:35.605Z,10.70
2022-09-28T17:10:10.134Z,10.60
2022-09-28T17:12:37.892Z,10.50
2022-09-28T17:15:06.624Z,10.30
2022-09-28T17:17:35.208Z,10.20
2022-09-28T17:20:13.664Z,10.00
2022-09-28T17:22:42.851Z,9.90
2022-09-28T17:25:12.734Z,9.80
2022-09-28T17:27:43.722Z,9.80
2022-09-28T17:30:14.847Z,9.80
2022-09-28T17:32:45.031Z,9.90
2022-09-28T17:35:24.091Z,9.90
2022-09-28T17:37:54.249Z,9.90
2022-09-28T17:40:24.317Z,9.80
2022-09-28T17:42:56.016Z,9.80
2022-09-28T17:45:28.472Z,9.70
2022-09-28T17:47:57.344Z,9.60
2022-09-28T17:50:27.939Z,9.50
2022-09-28T17:52:59.765Z,9.50
2022-09-28T17:55:29.540Z,9.40
2022-09-28T17:57:57.976Z,9.40
2022-09-28T18:00:27.503Z,9.40
2022-09-28T18:02:55.871Z,9.40
2022-09-28T18:05:25.030Z,9.40
2022-09-28T18:07:53.836Z,9.40
2022-09-28T18:10:26.330Z,9.40
2022-09-28T18:12:54.338Z,9.40
2022-09-28T18:15:22.872Z,9.40
2022-09-28T18:17:50.905Z,9.40
2022-09-28T18:20:19.049Z,9.40
2022-09-28T18:22:47.070Z,9.40
2022-09-28T18:25:15.149Z,9.50
2022-09-28T18:27:44.531Z,9.50
2022-09-28T18:30:12.918Z,9.60
2022-09-28T18:32:41.870Z,9.60
2022-09-28T18:35:11.238Z,9.60
2022-09-28T18:37:39.905Z,9.50
2022-09-28T18:40:09.551Z,9.50
2022-09-28T18:42:37.453Z,9.50
2022-09-28T18:45:10.788Z,9.60
2022-09-28T18:47:39.033Z,9.60
2022-09-28T18:50:08.128Z,9.60
2022-09-28T18:52:37.281Z,9.60
2022-09-28T18:55:06.311Z,9.60
2022-09-28T18:57:34.280Z,9.60
2022-09-28T19:00:02.930Z,9.70
2022-09-28T19:02:32.463Z,9.70
2022-09-28T19:05:00.690Z,9.70
2022-09-28T19:07:28.722Z,9.90
2022-09-28T19:09:56.593Z,9.80
2022-09-28T19:12:24.825Z,9.80
2022-09-28T19:14:52.903Z,9.80
2022-09-28T19:17:20.915Z,9.80
2022-09-28T19:19:51.618Z,9.70
2022-09-28T19:22:19.632Z,9.70
2022-09-28T19:24:47.855Z,9.60
2022-09-28T19:27:15.749Z,9.50
2022-09-28T19:29:43.611Z,9.40
2022-09-28T19:32:12.595Z,9.40
2022-09-28T19:34:40.739Z,9.40
2022-09-28T19:37:10.080Z,9.50
2022-09-28T19:39:37.987Z,9.40
2022-09-28T19:42:06.072Z,9.40
2022-09-28T19:44:35.720Z,9.40
2022-09-28T19:47:07.068Z,9.30
2022-09-28T19:49:37.140Z,9.20
2022-09-28T19:52:13.197Z,9.20
2022-09-28T19:54:45.155Z,9.30
2022-09-28T19:57:15.660Z,9.20
2022-09-28T19:59:44.443Z,9.20
2022-09-28T20:02:14.034Z,9.10
2022-09-28T20:04:42.022Z,9.10
2022-09-28T20:07:10.043Z,9.00
2022-09-28T20:09:38.185Z,9.10
2022-09-28T20:12:07.761Z,9.20
2022-09-28T20:14:38.307Z,9.10
2022-09-28T20:17:08.544Z,9.10
2022-09-28T20:19:36.415Z,9.10
2022-09-28T20:22:04.506Z,9.00
2022-09-28T20:24:32.898Z,9.00
2022-09-28T20:27:01.350Z,9.00
2022-09-28T20:29:33.263Z,8.90
2022-09-28T20:32:01.966Z,9.00
2022-09-28T20:34:29.826Z,9.00
2022-09-28T20:36:57.697Z,9.00
2022-09-28T20:39:25.651Z,9.00
2022-09-28T20:41:53.564Z,8.90
2022-09-28T20:44:21.552Z,8.90
2022-09-28T20:46:52.273Z,8.90
2022-09-28T20:49:20.354Z,8.90
2022-09-28T20:51:48.295Z,8.90
2022-09-28T20:54:16.158Z,8.90
2022-09-28T20:56:44.044Z,8.90
2022-09-28T20:59:13.067Z,9.00
2022-09-28T21:01:41.916Z,8.90
2022-09-28T21:04:11.904Z,8.90
2022-09-28T21:06:41.361Z,8.90
2022-09-28T21:09:10.691Z,8.80
2022-09-28T21:11:40.528Z,8.80
2022-09-28T21:14:10.084Z,8.80
2022-09-28T21:16:38.534Z,8.80
2022-09-28T21:19:06.419Z,8.70
2022-09-28T21:21:35.750Z,8.70
2022-09-28T21:24:04.136Z,8.60
2022-09-28T21:26:32.850Z,8.70
2022-09-28T21:29:02.341Z,8.70
2022-09-28T21:31:32.561Z,8.70
2022-09-28T21:34:00.992Z,8.70
2022-09-28T21:36:39.280Z,8.60
2022-09-28T21:39:10.198Z,8.60
2022-09-28T21:41:38.689Z,8.60
2022-09-28T21:44:07.079Z,8.50
2022-09-28T21:46:35.159Z,8.50
2022-09-28T21:49:04.097Z,8.50
2022-09-28T21:51:32.070Z,8.50
2022-09-28T21:54:01.339Z,8.50
2022-09-28T21:56:29.188Z,8.50
2022-09-28T21:58:57.090Z,8.50
2022-09-28T22:01:26.624Z,8.50
2022-09-28T22:03:56.518Z,8.50
2022-09-28T22:06:27.990Z,8.60
2022-09-28T22:08:56.387Z,8.50
2022-09-28T22:11:27.193Z,8.50
2022-09-28T22:13:57.020Z,8.50
2022-09-28T22:16:26.511Z,8.40
2022-09-28T22:18:54.495Z,8.40
2022-09-28T22:21:24.585Z,8.40
2022-09-28T22:23:52.876Z,8.40
2022-09-28T22:26:23.433Z,8.40
2022-09-28T22:28:54.805Z,8.30
2022-09-28T22:31:24.964Z,8.20
2022-09-28T22:33:53.135Z,8.20
2022-09-28T22:36:21.381Z,8.10
2022-09-28T22:38:49.592Z,8.10
2022-09-28T22:41:20.790Z,8.10
2022-09-28T22:43:49.351Z,8.10
2022-09-28T22:46:20.197Z,8.10
2022-09-28T22:48:48.915Z,8.20
2022-09-28T22:51:17.695Z,8.20
2022-09-28T22:53:46.084Z,8.00
2022-09-28T22:56:18.712Z,8.00
2022-09-28T22:58:47.421Z,7.90
2022-09-28T23:01:17.737Z,7.90
2022-09-28T23:03:47.754Z,7.90
2022-09-28T23:06:17.615Z,7.90
2022-09-28T23:08:46.749Z,7.90
2022-09-28T23:11:15.129Z,8.00
2022-09-28T23:13:43.247Z,7.90
2022-09-28T23:16:13.133Z,7.70
2022-09-28T23:18:41.892Z,7.70
2022-09-28T23:21:15.265Z,7.70
2022-09-28T23:23:43.201Z,7.70
2022-09-28T23:26:12.416Z,7.70
2022-09-28T23:28:40.263Z,7.70
2022-09-28T23:31:13.665Z,7.70
2022-09-28T23:33:41.719Z,7.70
2022-09-28T23:36:10.437Z,7.70
2022-09-28T23:38:39.915Z,7.70
2022-09-28T23:41:08.248Z,7.70
2022-09-28T23:43:36.683Z,7.70
2022-09-28T23:46:05.365Z,7.70
2022-09-28T23:48:33.540Z,7.70
2022-09-28T23:51:02.604Z,7.70
2022-09-28T23:53:32.162Z,7.60
2022-09-28T23:56:01.820Z,7.30
2022-09-28T23:58:29.684Z,7.30
